AFL600 URSS-UDYZ
Flight info
| Callsign | AFL600 |
|---|---|
| Flight time | 1h 4m |
| Altitude | 35000 |
| Route | TABAN1S TABAN N166 OGMOS B143 IDLER M747 BARUS DCT OGEVI T918 TIBLO |
| Aircraft | B738/M-SDE2E3FGHIRWXY/LB1 |
Departure
| Time | 2026-05-06 10:53 |
|---|---|
| Airport | Sochi International Airport (URSS) |
Arrival
| Time | 2026-05-06 11:58 |
|---|---|
| Airport | Zvartnots International Airport (UDYZ) |
| Time | Latitude | Longitude | Altitude | Speed | Heading |
|---|---|---|---|---|---|
| 2026-05-06 10:23 | 43.44794 | 39.94311 | 73 ft | 0 kts | 334° |
| 2026-05-06 10:45 | 43.44782 | 39.94319 | 63 ft | 2 kts | 334° |
| 2026-05-06 10:45 | 43.44767 | 39.94328 | 65 ft | 2 kts | 334° |
| 2026-05-06 10:46 | 43.44752 | 39.94338 | 68 ft | 2 kts | 334° |
| 2026-05-06 10:46 | 43.44738 | 39.94348 | 63 ft | 2 kts | 334° |
| 2026-05-06 10:46 | 43.44723 | 39.94357 | 70 ft | 2 kts | 334° |
| 2026-05-06 10:46 | 43.44709 | 39.94367 | 63 ft | 2 kts | 340° |
| 2026-05-06 10:47 | 43.44693 | 39.94370 | 68 ft | 2 kts | 11° |
| 2026-05-06 10:47 | 43.44679 | 39.94360 | 68 ft | 2 kts | 63° |
| 2026-05-06 10:47 | 43.44675 | 39.94348 | 68 ft | 0 kts | 69° |
| 2026-05-06 10:49 | 43.44676 | 39.94354 | 66 ft | 2 kts | 69° |
| 2026-05-06 10:49 | 43.44687 | 39.94388 | 67 ft | 6 kts | 65° |
| 2026-05-06 10:49 | 43.44711 | 39.94458 | 73 ft | 10 kts | 64° |
| 2026-05-06 10:50 | 43.44746 | 39.94561 | 68 ft | 14 kts | 65° |
| 2026-05-06 10:50 | 43.44790 | 39.94688 | 71 ft | 16 kts | 65° |
| 2026-05-06 10:50 | 43.44837 | 39.94828 | 69 ft | 16 kts | 64° |
| 2026-05-06 10:50 | 43.44885 | 39.94967 | 76 ft | 16 kts | 65° |
| 2026-05-06 10:51 | 43.44931 | 39.95100 | 84 ft | 15 kts | 60° |
| 2026-05-06 10:51 | 43.44977 | 39.95227 | 85 ft | 14 kts | 65° |
| 2026-05-06 10:51 | 43.45019 | 39.95350 | 88 ft | 14 kts | 65° |
| 2026-05-06 10:51 | 43.45056 | 39.95459 | 93 ft | 10 kts | 65° |
| 2026-05-06 10:52 | 43.45033 | 39.95528 | 90 ft | 9 kts | 154° |
| 2026-05-06 10:52 | 43.44969 | 39.95554 | 89 ft | 8 kts | 196° |
| 2026-05-06 10:52 | 43.44943 | 39.95499 | 89 ft | 7 kts | 244° |
| 2026-05-06 10:52 | 43.44918 | 39.95424 | 90 ft | 15 kts | 245° |
| 2026-05-06 10:53 | 43.44778 | 39.95012 | 72 ft | 83 kts | 245° |
| 2026-05-06 10:53 | 43.44444 | 39.94033 | 68 ft | 140 kts | 245° |
| 2026-05-06 10:53 | 43.43996 | 39.92699 | 463 ft | 154 kts | 248° |
| 2026-05-06 10:53 | 43.43623 | 39.91340 | 1242 ft | 155 kts | 259° |
| 2026-05-06 10:54 | 43.43418 | 39.89867 | 1879 ft | 160 kts | 258° |
| 2026-05-06 10:54 | 43.43169 | 39.88244 | 2162 ft | 188 kts | 258° |
| 2026-05-06 10:54 | 43.42871 | 39.86371 | 2386 ft | 211 kts | 257° |
| 2026-05-06 10:54 | 43.42533 | 39.84302 | 2624 ft | 229 kts | 257° |
| 2026-05-06 10:55 | 43.42167 | 39.82112 | 2954 ft | 247 kts | 257° |
| 2026-05-06 10:55 | 43.41766 | 39.79754 | 3494 ft | 257 kts | 257° |
| 2026-05-06 10:55 | 43.41352 | 39.77345 | 4191 ft | 261 kts | 257° |
| 2026-05-06 10:55 | 43.40932 | 39.74920 | 4977 ft | 262 kts | 257° |
| 2026-05-06 10:56 | 43.40504 | 39.72469 | 5673 ft | 265 kts | 257° |
| 2026-05-06 10:56 | 43.40066 | 39.69975 | 6330 ft | 272 kts | 258° |
| 2026-05-06 10:56 | 43.39619 | 39.67428 | 7036 ft | 275 kts | 258° |
| 2026-05-06 10:56 | 43.38979 | 39.64938 | 7767 ft | 280 kts | 238° |
| 2026-05-06 10:57 | 43.37580 | 39.63083 | 8512 ft | 285 kts | 210° |
| 2026-05-06 10:57 | 43.35681 | 39.62241 | 9232 ft | 291 kts | 188° |
| 2026-05-06 10:57 | 43.33645 | 39.62030 | 10013 ft | 293 kts | 182° |
| 2026-05-06 10:57 | 43.31576 | 39.61921 | 10571 ft | 306 kts | 182° |
| 2026-05-06 10:58 | 43.29365 | 39.61799 | 10743 ft | 330 kts | 182° |
| 2026-05-06 10:58 | 43.27055 | 39.61644 | 11195 ft | 341 kts | 183° |
| 2026-05-06 10:58 | 43.24629 | 39.61463 | 11850 ft | 347 kts | 183° |
| 2026-05-06 10:58 | 43.22215 | 39.61278 | 12686 ft | 348 kts | 183° |
| 2026-05-06 10:59 | 43.19829 | 39.61098 | 13520 ft | 349 kts | 184° |
| 2026-05-06 10:59 | 43.17360 | 39.60913 | 14271 ft | 353 kts | 184° |
| 2026-05-06 10:59 | 43.14889 | 39.60729 | 14929 ft | 358 kts | 184° |
| 2026-05-06 10:59 | 43.12410 | 39.60544 | 15602 ft | 363 kts | 183° |
| 2026-05-06 11:00 | 43.09860 | 39.60354 | 16275 ft | 369 kts | 183° |
| 2026-05-06 11:00 | 43.07260 | 39.60145 | 16944 ft | 374 kts | 185° |
| 2026-05-06 11:00 | 43.04671 | 39.59694 | 17671 ft | 378 kts | 188° |
| 2026-05-06 11:00 | 43.02062 | 39.59084 | 18310 ft | 383 kts | 190° |
| 2026-05-06 11:01 | 42.99431 | 39.58431 | 18951 ft | 386 kts | 189° |
| 2026-05-06 11:01 | 42.96779 | 39.57782 | 19619 ft | 387 kts | 189° |
| 2026-05-06 11:01 | 42.94116 | 39.57150 | 20255 ft | 390 kts | 189° |
| 2026-05-06 11:01 | 42.91460 | 39.56536 | 20785 ft | 395 kts | 188° |
| 2026-05-06 11:02 | 42.88746 | 39.55921 | 21123 ft | 398 kts | 188° |
| 2026-05-06 11:02 | 42.86004 | 39.55305 | 21123 ft | 397 kts | 188° |
| 2026-05-06 11:02 | 42.83286 | 39.54698 | 21132 ft | 396 kts | 188° |
| 2026-05-06 11:02 | 42.80559 | 39.54089 | 21142 ft | 397 kts | 188° |
| 2026-05-06 11:03 | 42.77831 | 39.53481 | 21122 ft | 397 kts | 188° |
| 2026-05-06 11:03 | 42.75106 | 39.52872 | 21129 ft | 397 kts | 188° |
| 2026-05-06 11:03 | 42.72377 | 39.52264 | 21123 ft | 397 kts | 188° |
| 2026-05-06 11:03 | 42.69646 | 39.51682 | 21125 ft | 397 kts | 184° |
| 2026-05-06 11:04 | 42.66920 | 39.51939 | 21129 ft | 393 kts | 162° |
| 2026-05-06 11:04 | 42.64462 | 39.53466 | 21133 ft | 389 kts | 143° |
| 2026-05-06 11:04 | 42.62495 | 39.55959 | 21189 ft | 390 kts | 127° |
| 2026-05-06 11:04 | 42.61120 | 39.59130 | 21668 ft | 391 kts | 110° |
| 2026-05-06 11:05 | 42.60278 | 39.62614 | 22485 ft | 387 kts | 106° |
| 2026-05-06 11:05 | 42.59533 | 39.66121 | 23202 ft | 387 kts | 105° |
| 2026-05-06 11:05 | 42.58804 | 39.69653 | 23749 ft | 391 kts | 105° |
| 2026-05-06 11:05 | 42.58064 | 39.73217 | 24198 ft | 394 kts | 105° |
| 2026-05-06 11:06 | 42.57305 | 39.76806 | 24634 ft | 398 kts | 105° |
| 2026-05-06 11:06 | 42.56529 | 39.80417 | 25098 ft | 400 kts | 106° |
| 2026-05-06 11:06 | 42.55740 | 39.84044 | 25575 ft | 402 kts | 106° |
| 2026-05-06 11:06 | 42.54942 | 39.87691 | 26013 ft | 405 kts | 106° |
| 2026-05-06 11:07 | 42.54137 | 39.91357 | 26454 ft | 407 kts | 106° |
| 2026-05-06 11:07 | 42.53325 | 39.95045 | 26898 ft | 409 kts | 106° |
| 2026-05-06 11:07 | 42.52504 | 39.98767 | 27204 ft | 415 kts | 106° |
| 2026-05-06 11:07 | 42.51675 | 40.02523 | 27587 ft | 418 kts | 106° |
| 2026-05-06 11:08 | 42.50838 | 40.06308 | 27995 ft | 420 kts | 107° |
| 2026-05-06 11:08 | 42.49997 | 40.10108 | 28431 ft | 422 kts | 107° |
| 2026-05-06 11:08 | 42.49151 | 40.13917 | 28849 ft | 423 kts | 107° |
| 2026-05-06 11:08 | 42.48328 | 40.17738 | 29236 ft | 425 kts | 105° |
| 2026-05-06 11:09 | 42.47538 | 40.21610 | 29595 ft | 428 kts | 105° |
| 2026-05-06 11:09 | 42.46759 | 40.25514 | 29936 ft | 430 kts | 105° |
| 2026-05-06 11:09 | 42.45979 | 40.29438 | 30276 ft | 433 kts | 105° |
| 2026-05-06 11:09 | 42.45192 | 40.33379 | 30527 ft | 435 kts | 105° |
| 2026-05-06 11:10 | 42.44397 | 40.37337 | 30883 ft | 435 kts | 105° |
| 2026-05-06 11:10 | 42.43597 | 40.41294 | 31244 ft | 435 kts | 105° |
| 2026-05-06 11:10 | 42.42794 | 40.45245 | 31557 ft | 437 kts | 105° |
| 2026-05-06 11:10 | 42.41984 | 40.49218 | 31854 ft | 438 kts | 106° |
| 2026-05-06 11:11 | 42.41171 | 40.53191 | 32179 ft | 439 kts | 106° |
| 2026-05-06 11:11 | 42.40355 | 40.57174 | 32522 ft | 439 kts | 106° |
| 2026-05-06 11:11 | 42.39537 | 40.61154 | 32850 ft | 439 kts | 106° |
| 2026-05-06 11:11 | 42.38717 | 40.65140 | 33083 ft | 442 kts | 107° |
| 2026-05-06 11:12 | 42.37886 | 40.69170 | 33250 ft | 446 kts | 107° |
| 2026-05-06 11:12 | 42.37051 | 40.73212 | 33553 ft | 447 kts | 107° |
| 2026-05-06 11:12 | 42.36214 | 40.77257 | 33909 ft | 446 kts | 107° |
| 2026-05-06 11:12 | 42.35377 | 40.81298 | 34189 ft | 447 kts | 107° |
| 2026-05-06 11:13 | 42.34534 | 40.85353 | 34426 ft | 448 kts | 107° |
| 2026-05-06 11:13 | 42.33690 | 40.89412 | 34686 ft | 448 kts | 107° |
| 2026-05-06 11:13 | 42.32844 | 40.93466 | 34949 ft | 448 kts | 107° |
| 2026-05-06 11:13 | 42.31996 | 40.97528 | 35133 ft | 450 kts | 107° |
| 2026-05-06 11:14 | 42.31139 | 41.01620 | 35116 ft | 455 kts | 107° |
| 2026-05-06 11:14 | 42.29411 | 41.09847 | 35123 ft | 454 kts | 107° |
| 2026-05-06 11:15 | 42.27709 | 41.17926 | 35127 ft | 448 kts | 107° |
| 2026-05-06 11:15 | 42.25997 | 41.26015 | 35135 ft | 448 kts | 107° |
| 2026-05-06 11:16 | 42.24278 | 41.34108 | 35126 ft | 449 kts | 107° |
| 2026-05-06 11:16 | 42.22552 | 41.42202 | 35122 ft | 449 kts | 107° |
| 2026-05-06 11:17 | 42.20820 | 41.50296 | 35122 ft | 449 kts | 107° |
| 2026-05-06 11:17 | 42.19077 | 41.58405 | 35126 ft | 450 kts | 107° |
| 2026-05-06 11:18 | 42.17329 | 41.66517 | 35121 ft | 452 kts | 108° |
| 2026-05-06 11:18 | 42.15563 | 41.74652 | 35120 ft | 452 kts | 108° |
| 2026-05-06 11:19 | 42.13743 | 41.82763 | 35121 ft | 452 kts | 108° |
| 2026-05-06 11:19 | 42.11909 | 41.90861 | 35118 ft | 452 kts | 108° |
| 2026-05-06 11:20 | 42.10071 | 41.98967 | 35106 ft | 452 kts | 109° |
| 2026-05-06 11:20 | 42.08235 | 42.07060 | 35114 ft | 452 kts | 109° |
| 2026-05-06 11:21 | 42.06393 | 42.15150 | 35117 ft | 452 kts | 109° |
| 2026-05-06 11:21 | 42.04546 | 42.23234 | 35120 ft | 453 kts | 109° |
| 2026-05-06 11:22 | 42.02686 | 42.31343 | 35091 ft | 454 kts | 109° |
| 2026-05-06 11:22 | 42.00822 | 42.39443 | 35113 ft | 454 kts | 109° |
| 2026-05-06 11:23 | 41.98949 | 42.47550 | 35103 ft | 454 kts | 109° |
| 2026-05-06 11:23 | 41.97071 | 42.55653 | 35109 ft | 454 kts | 109° |
| 2026-05-06 11:24 | 41.95187 | 42.63748 | 35090 ft | 454 kts | 109° |
| 2026-05-06 11:24 | 41.93296 | 42.71851 | 35096 ft | 454 kts | 109° |
| 2026-05-06 11:25 | 41.91342 | 42.79921 | 35087 ft | 454 kts | 115° |
| 2026-05-06 11:25 | 41.88076 | 42.87063 | 35094 ft | 448 kts | 133° |
| 2026-05-06 11:26 | 41.83620 | 42.92843 | 35075 ft | 446 kts | 140° |
| 2026-05-06 11:26 | 41.79025 | 42.98435 | 35083 ft | 447 kts | 140° |
| 2026-05-06 11:27 | 41.74440 | 43.04063 | 35089 ft | 448 kts | 140° |
| 2026-05-06 11:27 | 41.70135 | 43.09386 | 35073 ft | 449 kts | 140° |
| 2026-05-06 11:28 | 41.65549 | 43.15065 | 35075 ft | 449 kts | 141° |
| 2026-05-06 11:28 | 41.60960 | 43.20735 | 35072 ft | 450 kts | 141° |
| 2026-05-06 11:29 | 41.56359 | 43.26409 | 35075 ft | 450 kts | 141° |
| 2026-05-06 11:29 | 41.51752 | 43.32076 | 35065 ft | 450 kts | 141° |
| 2026-05-06 11:30 | 41.47136 | 43.37742 | 35061 ft | 451 kts | 141° |
| 2026-05-06 11:30 | 41.42521 | 43.43397 | 35057 ft | 450 kts | 141° |
| 2026-05-06 11:31 | 41.37912 | 43.49033 | 35055 ft | 450 kts | 142° |
| 2026-05-06 11:31 | 41.33302 | 43.54659 | 35060 ft | 449 kts | 142° |
| 2026-05-06 11:32 | 41.28682 | 43.60284 | 34672 ft | 451 kts | 142° |
| 2026-05-06 11:32 | 41.26383 | 43.63083 | 34302 ft | 445 kts | 142° |
| 2026-05-06 11:32 | 41.24114 | 43.65842 | 33856 ft | 441 kts | 142° |
| 2026-05-06 11:32 | 41.21859 | 43.68580 | 33394 ft | 437 kts | 142° |
| 2026-05-06 11:33 | 41.19625 | 43.71288 | 32961 ft | 433 kts | 142° |
| 2026-05-06 11:33 | 41.17417 | 43.73963 | 32540 ft | 428 kts | 142° |
| 2026-05-06 11:33 | 41.15142 | 43.76460 | 32119 ft | 419 kts | 150° |
| 2026-05-06 11:33 | 41.12596 | 43.78223 | 31736 ft | 409 kts | 162° |
| 2026-05-06 11:34 | 41.09911 | 43.79308 | 31378 ft | 399 kts | 173° |
| 2026-05-06 11:34 | 41.07182 | 43.79775 | 30990 ft | 393 kts | 176° |
| 2026-05-06 11:34 | 41.04471 | 43.80142 | 30587 ft | 390 kts | 176° |
| 2026-05-06 11:34 | 41.01778 | 43.80505 | 30186 ft | 388 kts | 176° |
| 2026-05-06 11:35 | 40.99106 | 43.80879 | 29742 ft | 385 kts | 176° |
| 2026-05-06 11:35 | 40.96448 | 43.81265 | 29287 ft | 382 kts | 176° |
| 2026-05-06 11:35 | 40.93822 | 43.81654 | 28885 ft | 378 kts | 175° |
| 2026-05-06 11:35 | 40.91224 | 43.82043 | 28477 ft | 374 kts | 175° |
| 2026-05-06 11:36 | 40.88643 | 43.82430 | 28089 ft | 371 kts | 175° |
| 2026-05-06 11:36 | 40.86091 | 43.82814 | 27669 ft | 367 kts | 178° |
| 2026-05-06 11:36 | 40.83565 | 43.83192 | 27271 ft | 364 kts | 178° |
| 2026-05-06 11:36 | 40.81052 | 43.83554 | 26806 ft | 363 kts | 178° |
| 2026-05-06 11:37 | 40.78551 | 43.83905 | 26408 ft | 361 kts | 178° |
| 2026-05-06 11:37 | 40.76061 | 43.84255 | 26017 ft | 358 kts | 177° |
| 2026-05-06 11:37 | 40.73593 | 43.84603 | 25632 ft | 356 kts | 177° |
| 2026-05-06 11:37 | 40.71142 | 43.84939 | 25285 ft | 352 kts | 178° |
| 2026-05-06 11:38 | 40.68715 | 43.85253 | 24931 ft | 349 kts | 178° |
| 2026-05-06 11:38 | 40.66302 | 43.85560 | 24565 ft | 347 kts | 177° |
| 2026-05-06 11:38 | 40.63901 | 43.85865 | 24180 ft | 345 kts | 178° |
| 2026-05-06 11:38 | 40.61513 | 43.86169 | 23826 ft | 344 kts | 177° |
| 2026-05-06 11:39 | 40.59108 | 43.86476 | 23408 ft | 342 kts | 177° |
| 2026-05-06 11:39 | 40.56749 | 43.86778 | 22989 ft | 340 kts | 177° |
| 2026-05-06 11:39 | 40.54402 | 43.87079 | 22608 ft | 337 kts | 177° |
| 2026-05-06 11:39 | 40.52083 | 43.87376 | 22235 ft | 334 kts | 177° |
| 2026-05-06 11:40 | 40.49775 | 43.87672 | 21864 ft | 332 kts | 177° |
| 2026-05-06 11:40 | 40.47485 | 43.87965 | 21490 ft | 329 kts | 177° |
| 2026-05-06 11:40 | 40.45211 | 43.88256 | 21131 ft | 328 kts | 177° |
| 2026-05-06 11:40 | 40.42977 | 43.88541 | 20755 ft | 326 kts | 178° |
| 2026-05-06 11:41 | 40.40756 | 43.88896 | 20610 ft | 319 kts | 169° |
| 2026-05-06 11:41 | 40.38754 | 43.90114 | 20425 ft | 319 kts | 147° |
| 2026-05-06 11:41 | 40.37188 | 43.92185 | 20124 ft | 324 kts | 128° |
| 2026-05-06 11:41 | 40.35981 | 43.94723 | 19811 ft | 323 kts | 124° |
| 2026-05-06 11:42 | 40.34875 | 43.97235 | 19474 ft | 323 kts | 123° |
| 2026-05-06 11:42 | 40.33768 | 43.99789 | 19162 ft | 322 kts | 123° |
| 2026-05-06 11:42 | 40.32663 | 44.02334 | 18829 ft | 321 kts | 123° |
| 2026-05-06 11:42 | 40.31553 | 44.04871 | 18502 ft | 321 kts | 123° |
| 2026-05-06 11:43 | 40.30439 | 44.07401 | 18148 ft | 320 kts | 123° |
| 2026-05-06 11:43 | 40.29324 | 44.09918 | 17773 ft | 319 kts | 123° |
| 2026-05-06 11:43 | 40.28212 | 44.12422 | 17431 ft | 317 kts | 123° |
| 2026-05-06 11:44 | 40.26006 | 44.17368 | 16772 ft | 314 kts | 123° |
| 2026-05-06 11:44 | 40.25264 | 44.19029 | 16551 ft | 312 kts | 123° |
| 2026-05-06 11:44 | 40.24169 | 44.21477 | 16229 ft | 311 kts | 123° |
| 2026-05-06 11:44 | 40.23081 | 44.23907 | 15915 ft | 309 kts | 123° |
| 2026-05-06 11:45 | 40.21995 | 44.26329 | 15599 ft | 308 kts | 123° |
| 2026-05-06 11:45 | 40.20912 | 44.28743 | 15282 ft | 307 kts | 123° |
| 2026-05-06 11:45 | 40.19831 | 44.31148 | 14965 ft | 306 kts | 123° |
| 2026-05-06 11:45 | 40.18755 | 44.33544 | 14645 ft | 305 kts | 123° |
| 2026-05-06 11:46 | 40.17680 | 44.35933 | 14341 ft | 304 kts | 123° |
| 2026-05-06 11:46 | 40.16609 | 44.38312 | 14024 ft | 304 kts | 123° |
| 2026-05-06 11:46 | 40.15538 | 44.40690 | 13700 ft | 303 kts | 123° |
| 2026-05-06 11:46 | 40.14470 | 44.43059 | 13347 ft | 302 kts | 123° |
| 2026-05-06 11:47 | 40.13407 | 44.45415 | 13019 ft | 301 kts | 123° |
| 2026-05-06 11:47 | 40.12348 | 44.47762 | 12688 ft | 299 kts | 123° |
| 2026-05-06 11:47 | 40.11291 | 44.50101 | 12370 ft | 298 kts | 123° |
| 2026-05-06 11:47 | 40.10240 | 44.52425 | 12053 ft | 296 kts | 122° |
| 2026-05-06 11:48 | 40.09198 | 44.54729 | 11844 ft | 291 kts | 122° |
| 2026-05-06 11:48 | 40.08183 | 44.56973 | 11713 ft | 283 kts | 123° |
| 2026-05-06 11:48 | 40.07194 | 44.59159 | 11596 ft | 275 kts | 122° |
| 2026-05-06 11:48 | 40.06234 | 44.61278 | 11488 ft | 267 kts | 123° |
| 2026-05-06 11:49 | 40.05301 | 44.63333 | 11391 ft | 259 kts | 123° |
| 2026-05-06 11:49 | 40.04397 | 44.65325 | 11288 ft | 251 kts | 123° |
| 2026-05-06 11:49 | 40.03543 | 44.67284 | 11169 ft | 247 kts | 114° |
| 2026-05-06 11:49 | 40.03275 | 44.69512 | 10949 ft | 254 kts | 90° |
| 2026-05-06 11:50 | 40.03304 | 44.71807 | 10707 ft | 253 kts | 91° |
| 2026-05-06 11:50 | 40.03322 | 44.74099 | 10472 ft | 252 kts | 89° |
| 2026-05-06 11:50 | 40.03717 | 44.76309 | 10205 ft | 253 kts | 58° |
| 2026-05-06 11:50 | 40.04938 | 44.77911 | 9970 ft | 250 kts | 26° |
| 2026-05-06 11:51 | 40.06576 | 44.78553 | 9738 ft | 245 kts | 2° |
| 2026-05-06 11:51 | 40.08274 | 44.78586 | 9485 ft | 244 kts | 358° |
| 2026-05-06 11:51 | 40.09955 | 44.78370 | 9214 ft | 243 kts | 345° |
| 2026-05-06 11:51 | 40.11584 | 44.77801 | 8962 ft | 242 kts | 343° |
| 2026-05-06 11:52 | 40.13180 | 44.77122 | 8678 ft | 240 kts | 328° |
| 2026-05-06 11:52 | 40.14355 | 44.75668 | 8438 ft | 232 kts | 297° |
| 2026-05-06 11:52 | 40.14856 | 44.73711 | 8211 ft | 227 kts | 274° |
| 2026-05-06 11:52 | 40.14889 | 44.71656 | 7980 ft | 226 kts | 269° |
| 2026-05-06 11:53 | 40.14873 | 44.69579 | 7619 ft | 231 kts | 269° |
| 2026-05-06 11:53 | 40.14859 | 44.67468 | 7359 ft | 232 kts | 269° |
| 2026-05-06 11:53 | 40.14847 | 44.65369 | 7152 ft | 230 kts | 269° |
| 2026-05-06 11:53 | 40.14836 | 44.63317 | 6949 ft | 220 kts | 269° |
| 2026-05-06 11:54 | 40.14828 | 44.61379 | 6728 ft | 208 kts | 268° |
| 2026-05-06 11:54 | 40.14821 | 44.59533 | 6506 ft | 199 kts | 269° |
| 2026-05-06 11:54 | 40.14814 | 44.57776 | 6257 ft | 188 kts | 268° |
| 2026-05-06 11:54 | 40.14807 | 44.56125 | 5992 ft | 180 kts | 268° |
| 2026-05-06 11:55 | 40.14802 | 44.54531 | 5705 ft | 168 kts | 268° |
| 2026-05-06 11:55 | 40.14796 | 44.53083 | 5525 ft | 154 kts | 268° |
| 2026-05-06 11:55 | 40.14798 | 44.51670 | 5202 ft | 156 kts | 269° |
| 2026-05-06 11:55 | 40.14804 | 44.50240 | 4763 ft | 157 kts | 268° |
| 2026-05-06 11:56 | 40.14791 | 44.48827 | 4304 ft | 153 kts | 268° |
| 2026-05-06 11:56 | 40.14762 | 44.47465 | 3920 ft | 147 kts | 270° |
| 2026-05-06 11:56 | 40.14765 | 44.46138 | 3661 ft | 145 kts | 270° |
| 2026-05-06 11:56 | 40.14773 | 44.44830 | 3407 ft | 146 kts | 270° |
| 2026-05-06 11:57 | 40.14758 | 44.43500 | 3263 ft | 145 kts | 270° |
| 2026-05-06 11:57 | 40.14757 | 44.42203 | 2976 ft | 137 kts | 267° |
| 2026-05-06 11:57 | 40.14739 | 44.41035 | 2838 ft | 119 kts | 269° |
| 2026-05-06 11:57 | 40.14734 | 44.40149 | 2836 ft | 76 kts | 270° |
| 2026-05-06 11:58 | 40.14734 | 44.39594 | 2831 ft | 56 kts | 269° |
| 2026-05-06 11:58 | 40.14730 | 44.39187 | 2829 ft | 33 kts | 269° |
| 2026-05-06 11:58 | 40.14728 | 44.38902 | 2829 ft | 28 kts | 269° |
| 2026-05-06 11:58 | 40.14726 | 44.38651 | 2829 ft | 27 kts | 269° |
| 2026-05-06 11:59 | 40.14719 | 44.38443 | 2829 ft | 19 kts | 250° |
| 2026-05-06 11:59 | 40.14722 | 44.38339 | 2831 ft | 7 kts | 353° |
| 2026-05-06 11:59 | 40.14739 | 44.38381 | 2829 ft | 6 kts | 101° |
| 2026-05-06 11:59 | 40.14730 | 44.38448 | 2828 ft | 9 kts | 95° |
| 2026-05-06 12:00 | 40.14728 | 44.38540 | 2829 ft | 12 kts | 91° |
| 2026-05-06 12:00 | 40.14728 | 44.38664 | 2829 ft | 16 kts | 90° |
| 2026-05-06 12:00 | 40.14729 | 44.38823 | 2829 ft | 19 kts | 90° |
| 2026-05-06 12:00 | 40.14729 | 44.39013 | 2829 ft | 22 kts | 90° |
| 2026-05-06 12:01 | 40.14730 | 44.39221 | 2830 ft | 24 kts | 90° |
| 2026-05-06 12:01 | 40.14731 | 44.39431 | 2830 ft | 22 kts | 89° |
| 2026-05-06 12:01 | 40.14733 | 44.39620 | 2831 ft | 19 kts | 89° |
| 2026-05-06 12:01 | 40.14734 | 44.39782 | 2833 ft | 16 kts | 89° |
| 2026-05-06 12:02 | 40.14737 | 44.39924 | 2835 ft | 15 kts | 89° |
| 2026-05-06 12:02 | 40.14767 | 44.40026 | 2836 ft | 13 kts | 23° |
| 2026-05-06 12:02 | 40.14857 | 44.40033 | 2835 ft | 13 kts | 360° |
| 2026-05-06 12:02 | 40.14928 | 44.40032 | 2836 ft | 9 kts | 359° |
| 2026-05-06 12:03 | 40.14980 | 44.39996 | 2836 ft | 9 kts | 292° |
| 2026-05-06 12:03 | 40.14998 | 44.39931 | 2836 ft | 6 kts | 330° |
| 2026-05-06 12:03 | 40.15031 | 44.39938 | 2836 ft | 5 kts | 11° |
| 2026-05-06 12:03 | 40.15063 | 44.39940 | 2836 ft | 3 kts | 359° |
| 2026-05-06 12:04 | 40.15080 | 44.39940 | 2836 ft | 2 kts | 358° |
| 2026-05-06 12:04 | 40.15088 | 44.39939 | 2836 ft | 1 kts | 359° |
| 2026-05-06 12:04 | 40.15090 | 44.39939 | 2836 ft | 0 kts | 359° |